Leonding, Austria
Current Conditions -  °F | °C
As of 5:50 AM on Saturday 29 Nov 2014 (Local Time) from LOWL Reporting Station
Broken Clouds Broken Clouds  
Wind Chill: 28°   Ceiling: 1100
Heat Index: 36°   Visibility: 6mi
Dew Point: 32°   Wind: 10mph
Humidity: 87%   Direction: 90°E
Pressure: 30"   Gusts: NA
Location:  48.28°N, 14.23°E
Report Text: LOWL 290350Z 09009KT 060V120 9999 SCT009 BKN011 02/M00 Q1016 TEMPO FEW007 OVC009
Loading
Personal Weather Stations






























Interactive Weather Map New forecast layout! Learn more

10-Day Weather Forecast

Advertisements
Track Severe Weather on mobile